Time;durP1;ratioP1;P1;durP2;ratioP2;P2;SDS_P1;SDS_P2;PMS_P1;PMS_P2;Temp;Humidity;BMP_temperature;BMP_pressure;BME280_temperature;BME280_humidity;BME280_pressure;Samples;Min_cycle;Max_cycle;Signal;HPM_P1;HPM_P2
2021/08/29 00:00:20;;;;;;;0.65;0.57;;;;;;;14.05;46.62;92474.63;4753870;30;20052;-93
2021/08/29 00:03:20;;;;;;;0.25;0.25;;;;;;;14.04;46.58;92468.59;4751550;30;20055;-93
2021/08/29 00:06:10;;;;;;;0.20;0.20;;;;;;;14.07;46.30;92461.94;4744488;30;20095;-94
2021/08/29 00:08:51;;;;;;;0.30;0.30;;;;;;;14.14;45.38;92459.63;4728696;30;20048;-92
2021/08/29 00:11:49;;;;;;;;;;;;;;;;;;;;;
2021/08/29 00:14:37;;;;;;;0.25;0.25;;;;;;;14.13;45.61;92444.91;4752616;30;20048;-93
2021/08/29 00:17:13;;;;;;;;;;;;;;;;;;;;;
2021/08/29 00:19:44;;;;;;;0.28;0.28;;;;;;;14.13;46.10;92455.44;4763977;30;20411;-92
2021/08/29 00:22:22;;;;;;;0.20;0.20;;;;;;;14.05;46.34;92448.31;4752673;30;20056;-92
2021/08/29 00:25:00;;;;;;;0.20;0.20;;;;;;;14.08;46.58;92459.00;4752217;30;20499;-91
2021/08/29 00:27:31;;;;;;;0.20;0.20;;;;;;;13.99;46.44;92444.28;4762141;30;20503;-92
2021/08/29 00:30:05;;;;;;;0.30;0.30;;;;;;;13.98;46.54;92451.38;4752609;30;20518;-93
2021/08/29 00:32:36;;;;;;;0.20;0.20;;;;;;;13.98;46.78;92438.22;4734242;30;20060;-93
2021/08/29 00:35:05;;;;;;;0.30;0.30;;;;;;;13.94;47.04;92448.63;4742407;30;20067;-93
2021/08/29 00:37:39;;;;;;;0.55;0.55;;;;;;;13.93;46.75;92448.91;4744896;30;20056;-92
2021/08/29 00:40:06;;;;;;;0.20;0.20;;;;;;;13.85;46.57;92439.16;4734292;30;20052;-92
2021/08/29 00:42:46;;;;;;;0.20;0.20;;;;;;;13.85;47.13;92447.06;4735365;30;20139;-92
2021/08/29 00:45:25;;;;;;;0.20;0.20;;;;;;;13.84;47.70;92456.78;4724389;30;20501;-92
2021/08/29 00:47:59;;;;;;;0.20;0.20;;;;;;;13.69;47.72;92436.16;4734468;30;20052;-92
2021/08/29 00:50:27;;;;;;;0.25;0.25;;;;;;;13.63;48.41;92432.16;4729119;30;20071;-94
2021/08/29 00:52:56;;;;;;;0.20;0.20;;;;;;;13.58;49.54;92440.16;4721259;30;20049;-92
2021/08/29 00:55:27;;;;;;;0.20;0.20;;;;;;;13.49;49.98;92445.41;4720059;30;20087;-93
2021/08/29 00:58:03;;;;;;;0.20;0.20;;;;;;;13.31;50.54;92441.94;4719516;30;20063;-92
2021/08/29 01:00:51;;;;;;;0.30;0.30;;;;;;;13.18;51.91;92433.03;4729967;30;20052;-92
2021/08/29 01:03:26;;;;;;;0.20;0.20;;;;;;;13.10;51.90;92442.44;4734669;30;20056;-93
2021/08/29 01:06:19;;;;;;;0.30;0.30;;;;;;;13.00;52.66;92441.91;4733959;30;20083;-93
2021/08/29 01:09:06;;;;;;;0.43;0.40;;;;;;;12.90;52.54;92437.69;4746203;30;20048;-93
2021/08/29 01:11:43;;;;;;;0.20;0.20;;;;;;;12.83;51.99;92438.09;4729856;30;20072;-94
2021/08/29 01:14:21;;;;;;;0.40;0.40;;;;;;;12.87;50.35;92433.03;4734378;30;20056;-93
2021/08/29 01:17:01;;;;;;;0.20;0.20;;;;;;;12.87;51.75;92438.28;4734292;30;20495;-92
2021/08/29 01:20:09;;;;;;;0.20;0.20;;;;;;;12.80;52.25;92435.31;4729256;30;20548;-92
2021/08/29 01:22:47;;;;;;;0.30;0.30;;;;;;;12.76;52.14;92443.00;4673169;30;20059;-92
2021/08/29 01:25:21;;;;;;;0.20;0.20;;;;;;;12.75;50.85;92435.44;4705998;30;20151;-92
2021/08/29 01:27:58;;;;;;;0.20;0.20;;;;;;;12.78;49.48;92429.59;4733736;30;20056;-93
2021/08/29 01:30:32;;;;;;;0.28;0.28;;;;;;;12.88;49.14;92434.59;4733765;30;20143;-91
2021/08/29 01:33:07;;;;;;;0.30;0.30;;;;;;;12.96;49.20;92431.22;4719409;30;20053;-92
2021/08/29 01:35:43;;;;;;;0.20;0.20;;;;;;;12.90;50.27;92427.16;4719426;30;20060;-92
2021/08/29 01:38:11;;;;;;;0.30;0.30;;;;;;;12.84;51.05;92442.28;4704811;30;20049;-91
2021/08/29 01:40:45;;;;;;;0.40;0.40;;;;;;;12.78;51.15;92445.34;4719133;30;20052;-93
2021/08/29 01:43:14;;;;;;;0.50;0.50;;;;;;;12.64;51.24;92433.06;4719338;30;20418;-91
2021/08/29 01:45:44;;;;;;;0.20;0.20;;;;;;;12.60;51.72;92429.47;4733314;30;20079;-94
2021/08/29 01:48:20;;;;;;;0.30;0.30;;;;;;;12.59;51.45;92438.44;4724698;30;20049;-93
2021/08/29 01:50:58;;;;;;;0.28;0.28;;;;;;;12.53;52.32;92431.75;4751446;30;20064;-92
2021/08/29 01:53:43;;;;;;;0.22;0.22;;;;;;;12.50;53.56;92441.00;4750746;30;20462;-93
2021/08/29 01:56:20;;;;;;;0.20;0.20;;;;;;;12.32;54.06;92428.84;4744850;30;20056;-93
2021/08/29 01:58:59;;;;;;;0.30;0.30;;;;;;;12.23;54.19;92425.38;4737535;30;20056;-93
2021/08/29 02:01:41;;;;;;;;;;;;;;;;;;;;;
2021/08/29 02:04:10;;;;;;;0.30;0.30;;;;;;;12.04;54.19;92428.13;4735076;30;20061;-93
2021/08/29 02:06:49;;;;;;;0.20;0.20;;;;;;;11.97;55.06;92428.53;4719072;30;20136;-92
2021/08/29 02:09:26;;;;;;;0.40;0.40;;;;;;;11.93;54.93;92424.94;4763282;30;20128;-94
2021/08/29 02:12:07;;;;;;;0.25;0.25;;;;;;;11.86;55.72;92433.19;4744840;30;20144;-92
2021/08/29 02:14:51;;;;;;;0.20;0.20;;;;;;;11.89;55.51;92431.88;4722480;30;20063;-92
2021/08/29 02:17:28;;;;;;;0.22;0.22;;;;;;;11.79;55.15;92424.94;4745898;30;20453;-92
2021/08/29 02:20:11;;;;;;;0.40;0.40;;;;;;;11.81;55.75;92425.44;4755072;30;20130;-91
2021/08/29 02:22:40;;;;;;;0.25;0.25;;;;;;;11.82;55.96;92424.38;4751558;30;20056;-91
2021/08/29 02:25:11;;;;;;;0.25;0.25;;;;;;;11.81;56.18;92429.91;4769477;30;20045;-91
2021/08/29 02:27:41;;;;;;;0.30;0.30;;;;;;;11.72;56.38;92431.69;4740885;30;20053;-92
2021/08/29 02:30:17;;;;;;;0.30;0.30;;;;;;;11.71;57.00;92445.84;4754815;30;20142;-92
2021/08/29 02:32:54;;;;;;;0.30;0.30;;;;;;;11.61;56.91;92441.59;4740574;30;20125;-92
2021/08/29 02:35:38;;;;;;;0.22;0.22;;;;;;;11.59;57.27;92443.72;4749604;30;20060;-90
2021/08/29 02:38:15;;;;;;;0.20;0.20;;;;;;;11.55;57.52;92448.78;4742476;30;20143;-93
2021/08/29 02:41:07;;;;;;;0.30;0.30;;;;;;;11.58;57.79;92450.06;4754042;30;20545;-91
2021/08/29 02:43:40;;;;;;;0.30;0.30;;;;;;;11.58;57.38;92453.44;4739683;30;20516;-93
2021/08/29 02:46:09;;;;;;;0.30;0.30;;;;;;;11.59;56.46;92462.84;4753842;30;20056;-92
2021/08/29 02:48:44;;;;;;;0.22;0.22;;;;;;;11.60;56.15;92463.66;4755340;30;20115;-91
2021/08/29 02:51:25;;;;;;;;;;;;;;;11.69;55.54;92475.00;4749430;30;20062;-92
2021/08/29 02:53:57;;;;;;;0.30;0.30;;;;;;;11.66;55.47;92472.94;4753701;30;19976;-92
2021/08/29 02:56:41;;;;;;;0.20;0.20;;;;;;;11.92;52.66;92472.47;4728267;30;20140;-93
2021/08/29 02:59:12;;;;;;;0.52;0.50;;;;;;;12.02;53.42;92467.00;4744476;30;20458;-92
2021/08/29 03:01:43;;;;;;;0.20;0.20;;;;;;;12.11;53.53;92465.22;4768258;30;20056;-92
2021/08/29 03:04:26;;;;;;;0.30;0.30;;;;;;;12.03;54.89;92453.59;4755218;30;20059;-92
2021/08/29 03:06:56;;;;;;;0.20;0.20;;;;;;;11.91;55.91;92461.22;4754325;30;20048;-92
2021/08/29 03:09:34;;;;;;;0.30;0.30;;;;;;;11.83;56.96;92462.63;4724556;30;20495;-92
2021/08/29 03:12:10;;;;;;;0.20;0.20;;;;;;;11.69;56.67;92454.03;4729467;30;20057;-92
2021/08/29 03:15:13;;;;;;;0.25;0.25;;;;;;;11.64;57.18;92454.09;4708559;30;20057;-92
2021/08/29 03:17:51;;;;;;;0.40;0.40;;;;;;;11.54;57.80;92451.69;4721096;30;20076;-94
2021/08/29 03:20:20;;;;;;;0.25;0.25;;;;;;;11.41;58.45;92455.88;4744763;30;20056;-93
2021/08/29 03:22:51;;;;;;;0.30;0.30;;;;;;;11.31;58.78;92448.97;4735677;30;20040;-92
2021/08/29 03:25:25;;;;;;;0.20;0.20;;;;;;;11.28;58.44;92446.94;4729797;30;20080;-92
2021/08/29 03:28:09;;;;;;;0.22;0.22;;;;;;;11.29;58.44;92456.34;4735477;30;20415;-93
2021/08/29 03:30:40;;;;;;;0.22;0.22;;;;;;;11.33;58.42;92452.09;4746306;30;20538;-92
2021/08/29 03:33:12;;;;;;;0.32;0.32;;;;;;;11.24;58.65;92438.13;4749261;30;20123;-92
2021/08/29 03:35:45;;;;;;;;;;;;;;;11.31;59.28;92462.09;4735758;30;20327;-92
2021/08/29 03:38:19;;;;;;;0.30;0.30;;;;;;;11.24;59.87;92448.59;4735552;30;20364;-92
2021/08/29 03:41:08;;;;;;;;;;;;;;;;;;;;;
2021/08/29 03:43:48;;;;;;;0.30;0.30;;;;;;;11.22;60.17;92451.50;4749957;30;20059;-91
2021/08/29 03:46:23;;;;;;;0.32;0.32;;;;;;;11.20;60.84;92455.47;4728915;30;20083;-92
2021/08/29 03:48:58;;;;;;;0.20;0.20;;;;;;;11.13;61.28;92455.09;4721248;30;20083;-92
2021/08/29 03:51:32;;;;;;;0.40;0.40;;;;;;;11.08;60.98;92455.16;4730952;30;20048;-92
2021/08/29 03:54:06;;;;;;;0.30;0.30;;;;;;;10.95;61.94;92446.22;4722287;30;20053;-91
2021/08/29 03:56:42;;;;;;;0.30;0.30;;;;;;;10.84;61.40;92440.38;4738548;30;20487;-92
2021/08/29 03:59:09;;;;;;;0.30;0.30;;;;;;;10.83;61.99;92446.69;4735343;30;20164;-92
2021/08/29 04:01:38;;;;;;;1.58;0.50;;;;;;;10.73;62.43;92442.41;4720271;30;20064;-91
2021/08/29 04:04:10;;;;;;;0.25;0.25;;;;;;;10.74;62.36;92451.00;4705852;30;20079;-93
2021/08/29 04:06:48;;;;;;;0.40;0.40;;;;;;;10.65;63.29;92447.50;4730963;30;20056;-92
2021/08/29 04:09:22;;;;;;;0.30;0.30;;;;;;;10.50;65.19;92440.69;4734084;30;20532;-92
2021/08/29 04:12:03;;;;;;;0.73;0.70;;;;;;;10.53;65.75;92442.72;4758714;30;20136;-92
2021/08/29 04:14:53;;;;;;;0.30;0.30;;;;;;;10.48;64.85;92443.59;4738077;30;20062;-91
2021/08/29 04:17:21;;;;;;;0.30;0.30;;;;;;;10.50;65.44;92448.53;4732377;30;20056;-92
2021/08/29 04:19:56;;;;;;;0.47;0.47;;;;;;;10.46;65.56;92444.94;4752280;30;20067;-92
2021/08/29 04:22:29;;;;;;;0.32;0.32;;;;;;;10.49;65.89;92450.38;4722799;30;20526;-92
2021/08/29 04:25:09;;;;;;;0.73;0.65;;;;;;;10.42;66.43;92444.72;4751408;30;20110;-92
2021/08/29 04:27:55;;;;;;;;;;;;;;;;;;;;;
2021/08/29 04:30:24;;;;;;;0.20;0.20;;;;;;;10.43;66.28;92456.00;4745628;30;20139;-91
2021/08/29 04:33:09;;;;;;;0.30;0.30;;;;;;;10.33;66.28;92441.19;4723019;30;20125;-91
2021/08/29 04:36:11;;;;;;;0.73;0.57;;;;;;;10.32;66.92;92434.44;4750239;30;20060;-93
2021/08/29 04:39:31;;;;;;;;;;;;;;;;;;;;;
2021/08/29 04:42:12;;;;;;;0.43;0.43;;;;;;;10.35;67.55;92444.31;4749823;30;20055;-92
2021/08/29 04:45:07;;;;;;;0.63;0.57;;;;;;;10.28;67.21;92444.66;4749515;30;20060;-92
2021/08/29 04:47:46;;;;;;;0.20;0.20;;;;;;;10.31;67.87;92443.31;4723915;30;20052;-93
2021/08/29 04:50:21;;;;;;;0.40;0.40;;;;;;;10.30;68.68;92441.78;4751810;30;20075;-92
2021/08/29 04:52:55;;;;;;;0.80;0.77;;;;;;;10.33;68.67;92435.97;4737139;30;20083;-91
2021/08/29 04:55:34;;;;;;;0.73;0.73;;;;;;;10.40;68.71;92455.50;4730542;30;20060;-92
2021/08/29 04:58:08;;;;;;;0.52;0.40;;;;;;;10.40;68.89;92444.22;4737831;30;20064;-91
2021/08/29 05:03:24;;;;;;;0.40;0.40;;;;;;;10.51;69.64;92466.56;4818601;27;8281610;-75
2021/08/29 05:05:52;;;;;;;0.70;0.70;;;;;;;10.55;69.18;92459.69;5074080;28;20040;-75
2021/08/29 05:08:24;;;;;;;0.55;0.55;;;;;;;10.62;69.66;92460.09;5089149;28;20035;-75
2021/08/29 05:10:50;;;;;;;0.40;0.40;;;;;;;10.71;69.52;92452.38;5086365;28;20043;-74
2021/08/29 05:13:17;;;;;;;0.40;0.40;;;;;;;10.80;70.11;92457.72;5056992;28;20021;-79
2021/08/29 05:15:44;;;;;;;1.02;0.93;;;;;;;10.84;69.55;92456.88;5087224;28;20090;-78
2021/08/29 05:18:12;;;;;;;3.50;0.70;;;;;;;10.92;69.16;92459.88;5090285;28;20025;-79
2021/08/29 05:20:49;;;;;;;0.80;0.75;;;;;;;10.98;69.01;92453.50;5091069;28;20367;-78
2021/08/29 05:23:41;;;;;;;0.50;0.50;;;;;;;11.10;68.73;92461.69;5064653;28;20447;-77
2021/08/29 05:26:22;;;;;;;0.65;0.65;;;;;;;11.25;69.14;92460.63;5086511;28;20513;-78
2021/08/29 05:28:48;;;;;;;0.40;0.40;;;;;;;11.34;68.67;92458.09;5069940;28;20075;-78
2021/08/29 05:31:13;;;;;;;0.30;0.30;;;;;;;11.45;68.47;92457.59;5070041;28;20028;-78
2021/08/29 05:33:39;;;;;;;0.43;0.43;;;;;;;11.54;67.65;92456.94;5077221;28;20040;-77
2021/08/29 05:36:05;;;;;;;0.75;0.65;;;;;;;11.63;67.42;92457.81;5086431;28;20051;-77
2021/08/29 05:38:31;;;;;;;0.85;0.63;;;;;;;11.71;67.11;92458.94;5086323;28;20044;-78
2021/08/29 05:41:16;;;;;;;0.50;0.50;;;;;;;11.84;67.09;92458.16;5087684;28;20473;-77
2021/08/29 05:44:17;;;;;;;0.57;0.57;;;;;;;12.05;66.69;92455.94;5093039;28;20490;-77
2021/08/29 05:46:43;;;;;;;0.50;0.50;;;;;;;12.20;66.56;92454.81;5087284;28;20035;-78
2021/08/29 05:49:09;;;;;;;0.60;0.60;;;;;;;12.43;66.69;92461.66;5084589;28;20024;-78
2021/08/29 05:51:35;;;;;;;0.98;0.80;;;;;;;12.57;66.05;92456.34;5085641;28;20131;-78
2021/08/29 05:54:02;;;;;;;2.80;0.80;;;;;;;12.69;65.49;92459.19;5069259;28;20028;-78
2021/08/29 05:56:28;;;;;;;0.80;0.63;;;;;;;12.83;65.80;92459.13;5087969;28;20405;-78
2021/08/29 05:58:55;;;;;;;0.30;0.30;;;;;;;12.98;65.32;92459.84;5093977;28;20400;-79
2021/08/29 06:01:21;;;;;;;0.20;0.20;;;;;;;13.16;65.28;92455.44;5102555;28;20082;-78
2021/08/29 06:03:47;;;;;;;0.22;0.22;;;;;;;13.36;63.79;92457.56;5097917;28;20082;-78
2021/08/29 06:06:36;;;;;;;0.50;0.43;;;;;;;13.60;61.93;92456.41;5078298;28;20567;-78
2021/08/29 06:09:03;;;;;;;0.32;0.32;;;;;;;13.78;62.89;92450.13;5088794;28;20036;-78
2021/08/29 06:11:29;;;;;;;0.50;0.50;;;;;;;13.98;61.87;92451.38;5090260;28;20135;-78
2021/08/29 06:13:57;;;;;;;0.60;0.50;;;;;;;14.03;61.15;92451.25;5097135;28;20078;-79
2021/08/29 06:16:24;;;;;;;0.20;0.20;;;;;;;14.18;59.52;92450.03;5090460;28;20427;-80
2021/08/29 06:18:51;;;;;;;0.45;0.45;;;;;;;14.65;58.78;92431.75;5092333;28;20036;-79
2021/08/29 06:21:18;;;;;;;0.40;0.40;;;;;;;17.09;47.74;92433.06;5075646;28;20525;-78
2021/08/29 06:23:44;;;;;;;0.80;0.80;;;;;;;20.38;40.21;92435.94;5075902;28;20043;-79
2021/08/29 06:26:41;;;;;;;0.50;0.50;;;;;;;23.08;36.10;92430.41;5039929;28;20047;-79
2021/08/29 06:29:25;;;;;;;0.55;0.55;;;;;;;24.36;33.51;92429.19;5073742;28;20055;-79
2021/08/29 06:32:10;;;;;;;0.60;0.60;;;;;;;24.41;32.65;92432.28;5090767;28;20409;-80
2021/08/29 06:34:50;;;;;;;0.50;0.50;;;;;;;25.59;31.44;92426.59;5093565;28;20147;-80
2021/08/29 06:37:26;;;;;;;0.68;0.60;;;;;;;26.70;30.83;92428.44;5073694;28;20494;-82
2021/08/29 06:39:52;;;;;;;0.52;0.52;;;;;;;27.06;30.61;92429.06;5057036;28;20048;-80
2021/08/29 06:42:17;;;;;;;0.63;0.63;;;;;;;27.35;27.36;92432.41;5074812;28;20033;-79
2021/08/29 06:44:47;;;;;;;0.60;0.60;;;;;;;25.78;28.38;92433.50;5093346;28;20088;-80
2021/08/29 06:47:52;;;;;;;0.70;0.70;;;;;;;27.58;26.10;92428.44;5025465;28;20570;-80
2021/08/29 06:50:43;;;;;;;0.70;0.70;;;;;;;27.58;25.13;92434.59;5031363;28;20065;-79
2021/08/29 06:53:28;;;;;;;0.70;0.70;;;;;;;27.84;27.11;92427.13;5059056;28;20047;-81
2021/08/29 06:56:29;;;;;;;0.85;0.85;;;;;;;28.45;26.44;92427.34;5039282;28;20045;-81
2021/08/29 06:59:05;;;;;;;0.70;0.70;;;;;;;27.42;26.90;92436.97;5078178;28;20048;-79
2021/08/29 07:01:38;;;;;;;0.63;0.60;;;;;;;25.93;29.51;92437.75;5087981;28;20056;-78
2021/08/29 07:04:04;;;;;;;1.48;0.65;;;;;;;26.71;29.19;92433.44;5086081;28;20054;-77
2021/08/29 07:06:30;;;;;;;0.30;0.30;;;;;;;26.94;28.23;92440.25;5079304;28;20058;-78
2021/08/29 07:09:07;;;;;;;0.20;0.20;;;;;;;24.05;33.56;92434.72;5107831;28;20035;-77
2021/08/29 07:11:33;;;;;;;0.15;0.15;;;;;;;22.86;35.60;92440.06;5084854;28;20032;-77
2021/08/29 07:14:22;;;;;;;0.20;0.20;;;;;;;21.80;38.19;92446.97;5107762;28;20096;-80
2021/08/29 07:16:49;;;;;;;0.30;0.30;;;;;;;20.97;40.54;92439.41;5075373;28;20100;-80
2021/08/29 07:19:15;;;;;;;0.20;0.20;;;;;;;18.95;45.81;92442.41;5066461;28;20066;-78
2021/08/29 07:22:01;;;;;;;0.60;0.60;;;;;;;18.65;46.54;92445.38;5086523;28;20048;-79
2021/08/29 07:25:02;;;;;;;0.20;0.20;;;;;;;16.97;52.47;92435.66;5000237;28;21587;-77
2021/08/29 07:27:46;;;;;;;0.20;0.20;;;;;;;17.78;49.34;92441.28;5090252;28;20567;-79
2021/08/29 07:30:30;;;;;;;0.25;0.25;;;;;;;18.66;48.65;92423.03;5081035;28;20046;-77
2021/08/29 07:33:16;;;;;;;0.43;0.30;;;;;;;17.65;49.48;92433.34;5111648;28;20084;-78
2021/08/29 07:36:00;;;;;;;0.30;0.30;;;;;;;17.59;49.19;92437.31;5099789;28;20043;-77
2021/08/29 07:38:33;;;;;;;0.20;0.20;;;;;;;17.98;48.99;92434.34;5095592;28;20126;-76
2021/08/29 07:40:59;;;;;;;0.30;0.30;;;;;;;17.30;50.48;92435.63;5061134;28;20115;-77
2021/08/29 07:43:25;;;;;;;0.65;0.45;;;;;;;17.54;50.07;92442.03;5096278;28;20053;-77
2021/08/29 07:45:50;;;;;;;0.20;0.20;;;;;;;16.96;50.92;92429.63;5092944;28;20044;-76
2021/08/29 07:48:16;;;;;;;0.30;0.30;;;;;;;17.22;50.86;92431.19;5061895;28;20139;-76
2021/08/29 07:50:42;;;;;;;0.63;0.50;;;;;;;17.50;51.15;92431.38;5080378;28;20119;-76
2021/08/29 07:53:07;;;;;;;0.30;0.30;;;;;;;17.51;49.63;92430.25;5062351;28;20028;-76
2021/08/29 07:55:53;;;;;;;0.30;0.20;;;;;;;17.89;49.37;92431.81;5074746;28;20040;-76
2021/08/29 07:58:24;;;;;;;0.38;0.38;;;;;;;17.75;50.16;92434.03;5067179;28;20052;-76
2021/08/29 08:00:59;;;;;;;0.20;0.20;;;;;;;17.16;51.91;92430.66;5057233;28;20039;-76
2021/08/29 08:03:35;;;;;;;0.30;0.30;;;;;;;17.42;51.75;92433.00;5070720;28;20394;-76
2021/08/29 08:06:07;;;;;;;0.30;0.30;;;;;;;17.25;50.36;92423.41;5072018;28;20040;-76
2021/08/29 08:08:59;;;;;;;0.50;0.50;;;;;;;17.23;52.69;92430.13;5056127;28;20043;-76
2021/08/29 08:11:54;;;;;;;0.30;0.30;;;;;;;16.78;54.18;92428.22;5040430;28;20094;-76
2021/08/29 08:14:20;;;;;;;0.73;0.40;;;;;;;17.05;53.90;92432.94;5071835;28;20433;-77
2021/08/29 08:16:45;;;;;;;0.30;0.30;;;;;;;17.43;50.85;92433.78;5073466;28;20036;-76
2021/08/29 08:19:19;;;;;;;0.40;0.40;;;;;;;17.20;52.38;92433.41;5084653;28;20082;-76
2021/08/29 08:21:45;;;;;;;0.40;0.40;;;;;;;16.94;52.53;92431.81;5081978;28;20032;-76
2021/08/29 08:24:20;;;;;;;0.22;0.22;;;;;;;17.17;51.26;92434.84;5086414;28;20027;-77
2021/08/29 08:27:04;;;;;;;0.30;0.30;;;;;;;17.65;51.06;92441.31;5076443;28;20121;-76
2021/08/29 08:29:48;;;;;;;0.30;0.30;;;;;;;17.73;50.48;92438.88;5080110;28;20051;-76
2021/08/29 08:32:39;;;;;;;0.30;0.30;;;;;;;17.88;49.11;92430.28;5077126;28;20067;-77
2021/08/29 08:35:22;;;;;;;;;;;;;;;18.07;50.37;92438.41;5074985;28;20090;-76
2021/08/29 08:38:01;;;;;;;0.30;0.30;;;;;;;17.98;51.14;92435.13;5076762;28;19920;-77
2021/08/29 08:40:45;;;;;;;0.20;0.20;;;;;;;18.22;48.08;92434.31;5080551;28;20109;-77
2021/08/29 08:43:19;;;;;;;0.32;0.32;;;;;;;18.14;48.58;92427.25;5073272;28;20502;-77
2021/08/29 08:46:03;;;;;;;0.20;0.20;;;;;;;18.39;48.48;92429.88;5084646;28;20463;-77
2021/08/29 08:48:51;;;;;;;0.20;0.20;;;;;;;18.49;51.23;92429.41;5080212;28;20093;-77
2021/08/29 08:51:45;;;;;;;0.35;0.35;;;;;;;17.98;51.71;92429.81;5075014;28;20451;-77
2021/08/29 08:54:36;;;;;;;0.20;0.20;;;;;;;17.89;53.16;92426.53;5056792;28;20051;-76
2021/08/29 08:57:20;;;;;;;0.25;0.25;;;;;;;17.65;52.91;92424.63;5080046;28;20097;-77
2021/08/29 09:00:01;;;;;;;0.28;0.22;;;;;;;18.13;54.24;92417.03;5079438;28;20032;-77
2021/08/29 09:02:47;;;;;;;0.43;0.35;;;;;;;18.12;53.54;92412.81;5068046;28;20056;-76
2021/08/29 09:05:31;;;;;;;0.20;0.20;;;;;;;18.02;54.41;92420.13;5079398;28;20048;-78
2021/08/29 09:08:11;;;;;;;0.73;0.38;;;;;;;17.79;55.07;92416.38;5068676;28;20040;-74
2021/08/29 09:10:37;;;;;;;0.20;0.20;;;;;;;18.18;53.09;92422.09;5074712;28;20058;-74
2021/08/29 09:13:05;;;;;;;0.50;0.38;;;;;;;17.96;53.68;92418.78;5077122;28;20039;-75
2021/08/29 09:15:32;;;;;;;0.60;0.45;;;;;;;17.95;54.20;92427.84;5076135;28;20031;-75
2021/08/29 09:17:59;;;;;;;0.30;0.30;;;;;;;18.27;51.40;92417.41;5082953;28;20086;-75
2021/08/29 09:20:26;;;;;;;0.52;0.43;;;;;;;18.40;51.75;92424.22;5085866;28;20036;-74
2021/08/29 09:22:58;;;;;;;0.35;0.35;;;;;;;18.20;50.98;92420.63;5068332;28;20033;-74
2021/08/29 09:25:45;;;;;;;0.40;0.40;;;;;;;18.33;50.25;92413.44;5069450;28;20045;-74
2021/08/29 09:28:31;;;;;;;0.30;0.30;;;;;;;18.52;50.08;92405.63;5069006;28;20060;-75
2021/08/29 09:31:09;;;;;;;0.30;0.30;;;;;;;18.71;49.46;92406.88;5051050;28;20044;-75
2021/08/29 09:33:37;;;;;;;0.52;0.40;;;;;;;18.78;50.45;92407.13;5068702;28;20044;-76
2021/08/29 09:36:08;;;;;;;0.30;0.30;;;;;;;18.59;49.32;92405.06;5069634;28;20067;-75
2021/08/29 09:38:49;;;;;;;0.32;0.32;;;;;;;18.46;51.41;92407.00;5073751;28;20127;-74
2021/08/29 09:41:37;;;;;;;0.35;0.35;;;;;;;18.96;49.97;92401.50;5087940;28;20067;-75
2021/08/29 09:44:22;;;;;;;0.60;0.40;;;;;;;19.14;47.73;92403.50;5069083;28;20040;-75
2021/08/29 09:47:05;;;;;;;0.43;0.30;;;;;;;19.63;49.11;92401.63;5071421;28;20056;-74
2021/08/29 09:49:50;;;;;;;0.43;0.43;;;;;;;19.01;48.44;92398.63;5078218;28;20448;-76
2021/08/29 09:52:36;;;;;;;9.27;4.07;;;;;;;19.65;50.09;92400.16;5052098;28;20040;-76
2021/08/29 09:55:12;;;;;;;0.75;0.63;;;;;;;20.17;45.79;92399.06;5057124;28;20041;-76
2021/08/29 09:58:27;;;;;;;4.55;2.67;;;;;;;20.34;46.01;92392.56;5030713;28;20037;-75
2021/08/29 10:01:25;;;;;;;8.18;4.75;;;;;;;20.40;47.77;92393.09;5020883;28;20050;-76
2021/08/29 10:04:20;;;;;;;0.63;0.63;;;;;;;20.42;44.30;92392.72;5062843;28;20052;-75
2021/08/29 10:06:49;;;;;;;1.20;0.68;;;;;;;20.56;42.47;92393.81;5078622;28;20036;-75
2021/08/29 10:09:24;;;;;;;8.68;5.78;;;;;;;20.91;42.82;92389.50;5066682;28;20114;-75
2021/08/29 10:11:56;;;;;;;4.43;2.58;;;;;;;21.03;39.47;92385.91;5074602;28;20036;-75
2021/08/29 10:14:22;;;;;;;5.60;3.80;;;;;;;21.35;37.48;92395.22;5091841;28;20043;-75
2021/08/29 10:17:08;;;;;;;1.50;1.00;;;;;;;20.92;40.67;92388.41;5104601;28;20089;-75
2021/08/29 10:19:54;;;;;;;4.10;2.75;;;;;;;21.34;39.25;92383.03;5059771;28;20111;-76
2021/08/29 10:22:48;;;;;;;7.18;3.92;;;;;;;22.07;38.80;92390.25;5079753;28;20093;-74
2021/08/29 10:25:17;;;;;;;7.22;4.95;;;;;;;22.21;37.13;92385.91;5095515;28;20043;-77
2021/08/29 10:27:46;;;;;;;1.02;0.90;;;;;;;22.37;38.03;92391.06;5091270;28;20217;-75
2021/08/29 10:30:47;;;;;;;0.68;0.40;;;;;;;21.75;38.46;92398.53;5086714;28;20385;-76
2021/08/29 10:33:33;;;;;;;0.57;0.40;;;;;;;22.09;36.97;92394.09;5089971;28;20082;-76
2021/08/29 10:36:11;;;;;;;0.20;0.20;;;;;;;22.05;38.07;92393.28;5075148;28;20032;-77
2021/08/29 10:38:56;;;;;;;0.40;0.40;;;;;;;21.38;37.28;92386.53;5112777;28;20055;-74
2021/08/29 10:41:49;;;;;;;0.20;0.20;;;;;;;21.46;41.09;92381.34;5089208;28;20054;-76
2021/08/29 10:44:22;;;;;;;0.30;0.30;;;;;;;21.54;40.67;92383.75;5080641;28;20240;-75
2021/08/29 10:47:07;;;;;;;0.47;0.40;;;;;;;21.67;39.30;92383.59;5093175;28;20438;-75
2021/08/29 10:49:53;;;;;;;0.20;0.20;;;;;;;21.72;40.12;92385.94;5094425;28;20128;-77
2021/08/29 10:52:20;;;;;;;0.38;0.30;;;;;;;21.92;39.16;92379.38;5078534;28;20020;-76
2021/08/29 10:54:53;;;;;;;0.30;0.30;;;;;;;21.35;40.08;92376.59;5095784;28;20036;-75
2021/08/29 10:57:35;;;;;;;0.55;0.45;;;;;;;20.42;41.36;92377.53;5082074;28;20113;-75
2021/08/29 11:00:28;;;;;;;0.20;0.20;;;;;;;20.50;39.80;92383.78;5087743;28;20046;-75
2021/08/29 11:03:02;;;;;;;0.35;0.30;;;;;;;20.33;42.15;92376.97;5071792;28;20059;-75
2021/08/29 11:05:51;;;;;;;0.30;0.30;;;;;;;20.50;39.55;92391.75;5070894;28;20062;-76
2021/08/29 11:08:30;;;;;;;0.52;0.40;;;;;;;20.07;41.83;92383.66;5071134;28;20071;-75
2021/08/29 11:10:58;;;;;;;0.20;0.20;;;;;;;20.21;40.65;92382.44;5072736;28;20043;-77
2021/08/29 11:13:28;;;;;;;0.20;0.20;;;;;;;20.28;38.01;92382.56;5082105;28;20032;-76
2021/08/29 11:16:11;;;;;;;0.20;0.20;;;;;;;20.75;38.19;92376.28;5077673;28;20066;-76
2021/08/29 11:19:01;;;;;;;0.20;0.20;;;;;;;20.66;36.88;92387.16;5071743;28;20043;-75
2021/08/29 11:21:34;;;;;;;0.30;0.30;;;;;;;20.81;37.92;92379.47;5070686;28;20036;-76
2021/08/29 11:25:15;;;;;;;0.57;0.57;;;;;;;20.80;36.38;92373.34;5069769;28;20409;-77
2021/08/29 11:28:03;;;;;;;0.43;0.40;;;;;;;20.66;36.45;92378.41;5091266;28;20109;-79
2021/08/29 11:30:49;;;;;;;0.30;0.30;;;;;;;21.03;37.40;92385.91;5084478;28;20076;-79
2021/08/29 11:33:29;;;;;;;0.30;0.30;;;;;;;20.81;37.43;92376.78;5081817;28;20043;-79
2021/08/29 11:36:33;;;;;;;0.32;0.30;;;;;;;21.12;38.24;92371.28;5086403;28;20543;-79
2021/08/29 11:39:27;;;;;;;0.22;0.20;;;;;;;21.89;38.22;92368.69;5097848;28;20063;-79
2021/08/29 11:42:12;;;;;;;0.17;0.17;;;;;;;22.12;36.58;92372.03;5094362;28;20032;-79
2021/08/29 11:44:39;;;;;;;0.40;0.40;;;;;;;21.74;37.65;92365.78;5081561;28;20028;-79
2021/08/29 11:47:05;;;;;;;0.73;0.30;;;;;;;21.18;38.06;92364.50;5085061;28;20028;-79
2021/08/29 11:49:54;;;;;;;0.28;0.28;;;;;;;21.30;38.25;92370.78;5080028;28;20045;-79
2021/08/29 11:52:30;;;;;;;0.28;0.28;;;;;;;21.91;37.72;92363.75;5077770;28;20028;-79
2021/08/29 11:55:08;;;;;;;3.00;0.63;;;;;;;22.52;35.92;92359.25;5077119;28;20094;-79
2021/08/29 11:57:47;;;;;;;0.40;0.40;;;;;;;22.00;36.63;92358.94;5091042;28;20129;-79
2021/08/29 12:00:16;;;;;;;0.32;0.32;;;;;;;22.54;35.55;92355.06;5090637;28;20044;-79
2021/08/29 12:02:51;;;;;;;0.30;0.30;;;;;;;21.83;39.00;92355.66;5079995;28;20051;-77
2021/08/29 12:05:20;;;;;;;0.63;0.50;;;;;;;21.96;39.94;92355.47;5078039;28;20567;-78
2021/08/29 12:08:13;;;;;;;0.22;0.22;;;;;;;22.45;41.48;92350.03;5095642;28;20493;-78
2021/08/29 12:10:58;;;;;;;0.75;0.55;;;;;;;21.80;38.71;92360.94;5093867;28;20163;-77
2021/08/29 12:13:42;;;;;;;1.00;0.70;;;;;;;21.41;40.96;92353.91;5102822;28;20574;-77
2021/08/29 12:16:15;;;;;;;0.55;0.45;;;;;;;21.41;39.51;92355.78;5083262;28;20101;-79
2021/08/29 12:18:51;;;;;;;0.20;0.20;;;;;;;21.53;37.96;92352.94;5075291;28;20044;-78
2021/08/29 12:21:30;;;;;;;0.30;0.30;;;;;;;21.37;38.04;92344.28;5076445;28;20059;-79
2021/08/29 12:24:39;;;;;;;0.20;0.20;;;;;;;20.95;39.51;92345.88;5041583;28;20052;-78
2021/08/29 12:27:16;;;;;;;0.40;0.40;;;;;;;21.06;39.99;92345.31;5082597;28;20059;-79
2021/08/29 12:29:45;;;;;;;0.45;0.43;;;;;;;20.44;39.79;92347.94;5076873;28;20059;-79
2021/08/29 12:32:25;;;;;;;0.93;0.40;;;;;;;20.69;41.99;92343.91;5078427;28;20736;-79
2021/08/29 12:34:58;;;;;;;0.32;0.32;;;;;;;21.03;40.32;92351.31;5112538;28;20036;-78